sensor_id;sensor_type;location;lat;lon;timestamp;temperature;humidity
31003;DHT22;23051;-6.372;106.786;2023-11-21T00:01:29;28.70;80.10
31003;DHT22;23051;-6.372;106.786;2023-11-21T00:03:31;28.70;80.00
31003;DHT22;23051;-6.372;106.786;2023-11-21T00:05:32;28.70;79.90
31003;DHT22;23051;-6.372;106.786;2023-11-21T00:07:34;28.80;79.90
31003;DHT22;23051;-6.372;106.786;2023-11-21T00:09:38;28.80;79.80
31003;DHT22;23051;-6.372;106.786;2023-11-21T00:11:44;28.80;79.80
31003;DHT22;23051;-6.372;106.786;2023-11-21T00:13:49;28.90;79.80
31003;DHT22;23051;-6.372;106.786;2023-11-21T00:15:50;28.90;79.70
31003;DHT22;23051;-6.372;106.786;2023-11-21T00:17:54;28.90;79.60
31003;DHT22;23051;-6.372;106.786;2023-11-21T00:19:55;29.00;79.60
31003;DHT22;23051;-6.372;106.786;2023-11-21T00:21:57;29.00;79.50
31003;DHT22;23051;-6.372;106.786;2023-11-21T00:24:01;29.10;79.50
31003;DHT22;23051;-6.372;106.786;2023-11-21T00:26:02;29.10;79.50
31003;DHT22;23051;-6.372;106.786;2023-11-21T00:28:05;29.10;79.40
31003;DHT22;23051;-6.372;106.786;2023-11-21T00:30:07;29.10;79.50
31003;DHT22;23051;-6.372;106.786;2023-11-21T00:32:16;29.10;79.50
31003;DHT22;23051;-6.372;106.786;2023-11-21T00:34:20;29.10;79.40
31003;DHT22;23051;-6.372;106.786;2023-11-21T00:36:23;29.10;79.30
31003;DHT22;23051;-6.372;106.786;2023-11-21T00:38:29;29.20;79.30
31003;DHT22;23051;-6.372;106.786;2023-11-21T00:40:38;29.20;79.30
31003;DHT22;23051;-6.372;106.786;2023-11-21T00:42:39;29.20;79.20
31003;DHT22;23051;-6.372;106.786;2023-11-21T00:44:43;29.30;79.10
31003;DHT22;23051;-6.372;106.786;2023-11-21T00:46:47;29.30;79.10
31003;DHT22;23051;-6.372;106.786;2023-11-21T00:48:51;29.40;79.00
31003;DHT22;23051;-6.372;106.786;2023-11-21T00:50:53;29.40;78.90
31003;DHT22;23051;-6.372;106.786;2023-11-21T00:52:57;29.40;78.80
31003;DHT22;23051;-6.372;106.786;2023-11-21T00:55:03;29.50;78.80
31003;DHT22;23051;-6.372;106.786;2023-11-21T00:57:04;29.60;78.80
31003;DHT22;23051;-6.372;106.786;2023-11-21T00:59:08;29.60;78.70
31003;DHT22;23051;-6.372;106.786;2023-11-21T01:01:11;29.60;78.60
31003;DHT22;23051;-6.372;106.786;2023-11-21T01:03:13;29.70;78.70
31003;DHT22;23051;-6.372;106.786;2023-11-21T01:05:22;29.70;78.60
31003;DHT22;23051;-6.372;106.786;2023-11-21T01:07:24;29.70;78.50
31003;DHT22;23051;-6.372;106.786;2023-11-21T01:11:29;29.80;78.40
31003;DHT22;23051;-6.372;106.786;2023-11-21T01:13:33;29.80;78.20
31003;DHT22;23051;-6.372;106.786;2023-11-21T01:15:36;29.90;78.20
31003;DHT22;23051;-6.372;106.786;2023-11-21T01:17:40;29.90;78.10
31003;DHT22;23051;-6.372;106.786;2023-11-21T01:19:44;30.00;78.10
31003;DHT22;23051;-6.372;106.786;2023-11-21T01:21:48;30.00;78.00
31003;DHT22;23051;-6.372;106.786;2023-11-21T01:23:50;30.00;77.90
31003;DHT22;23051;-6.372;106.786;2023-11-21T01:25:51;30.10;77.90
31003;DHT22;23051;-6.372;106.786;2023-11-21T01:27:53;30.20;77.80
31003;DHT22;23051;-6.372;106.786;2023-11-21T01:29:54;30.20;77.80
31003;DHT22;23051;-6.372;106.786;2023-11-21T01:31:56;30.30;77.70
31003;DHT22;23051;-6.372;106.786;2023-11-21T01:34:00;30.30;77.60
31003;DHT22;23051;-6.372;106.786;2023-11-21T01:38:07;30.30;77.50
31003;DHT22;23051;-6.372;106.786;2023-11-21T01:42:15;30.40;77.50
31003;DHT22;23051;-6.372;106.786;2023-11-21T01:44:17;30.40;77.40
31003;DHT22;23051;-6.372;106.786;2023-11-21T01:46:23;30.50;77.50
31003;DHT22;23051;-6.372;106.786;2023-11-21T01:48:27;30.50;77.40
31003;DHT22;23051;-6.372;106.786;2023-11-21T01:50:34;30.50;77.30
31003;DHT22;23051;-6.372;106.786;2023-11-21T01:52:40;30.60;77.40
31003;DHT22;23051;-6.372;106.786;2023-11-21T01:54:47;30.60;77.20
31003;DHT22;23051;-6.372;106.786;2023-11-21T01:56:49;30.60;77.10
31003;DHT22;23051;-6.372;106.786;2023-11-21T01:58:51;30.70;77.10
31003;DHT22;23051;-6.372;106.786;2023-11-21T02:00:55;30.70;77.00
31003;DHT22;23051;-6.372;106.786;2023-11-21T02:02:59;30.80;76.90
31003;DHT22;23051;-6.372;106.786;2023-11-21T02:05:01;30.90;76.90
31003;DHT22;23051;-6.372;106.786;2023-11-21T02:07:07;30.90;76.80
31003;DHT22;23051;-6.372;106.786;2023-11-21T02:09:09;30.90;76.70
31003;DHT22;23051;-6.372;106.786;2023-11-21T02:11:13;30.90;76.60
31003;DHT22;23051;-6.372;106.786;2023-11-21T02:13:14;31.00;76.60
31003;DHT22;23051;-6.372;106.786;2023-11-21T02:15:17;31.00;76.50
31003;DHT22;23051;-6.372;106.786;2023-11-21T02:17:21;31.10;76.50
31003;DHT22;23051;-6.372;106.786;2023-11-21T02:19:23;31.10;76.40
31003;DHT22;23051;-6.372;106.786;2023-11-21T02:21:25;31.10;76.30
31003;DHT22;23051;-6.372;106.786;2023-11-21T02:23:32;31.20;76.30
31003;DHT22;23051;-6.372;106.786;2023-11-21T02:25:36;31.20;76.20
31003;DHT22;23051;-6.372;106.786;2023-11-21T02:27:38;31.30;76.10
31003;DHT22;23051;-6.372;106.786;2023-11-21T02:29:42;31.30;76.00
31003;DHT22;23051;-6.372;106.786;2023-11-21T02:31:46;31.40;75.90
31003;DHT22;23051;-6.372;106.786;2023-11-21T02:33:48;31.40;75.90
31003;DHT22;23051;-6.372;106.786;2023-11-21T02:35:53;31.50;75.90
31003;DHT22;23051;-6.372;106.786;2023-11-21T02:37:58;31.50;75.80
31003;DHT22;23051;-6.372;106.786;2023-11-21T02:40:05;31.50;75.70
31003;DHT22;23051;-6.372;106.786;2023-11-21T02:42:07;31.50;75.70
31003;DHT22;23051;-6.372;106.786;2023-11-21T02:44:09;31.60;75.70
31003;DHT22;23051;-6.372;106.786;2023-11-21T02:48:18;31.70;75.60
31003;DHT22;23051;-6.372;106.786;2023-11-21T02:50:20;31.70;75.50
31003;DHT22;23051;-6.372;106.786;2023-11-21T02:52:23;31.70;75.40
31003;DHT22;23051;-6.372;106.786;2023-11-21T02:54:28;31.70;75.30
31003;DHT22;23051;-6.372;106.786;2023-11-21T02:56:33;31.80;75.30
31003;DHT22;23051;-6.372;106.786;2023-11-21T02:58:37;31.80;75.20
31003;DHT22;23051;-6.372;106.786;2023-11-21T03:02:49;32.00;75.80
31003;DHT22;23051;-6.372;106.786;2023-11-21T03:04:53;32.10;74.80
31003;DHT22;23051;-6.372;106.786;2023-11-21T03:06:59;32.20;74.60
31003;DHT22;23051;-6.372;106.786;2023-11-21T03:09:03;32.40;74.40
31003;DHT22;23051;-6.372;106.786;2023-11-21T03:11:07;32.50;74.00
31003;DHT22;23051;-6.372;106.786;2023-11-21T03:13:11;32.70;73.70
31003;DHT22;23051;-6.372;106.786;2023-11-21T03:15:15;32.80;73.40
31003;DHT22;23051;-6.372;106.786;2023-11-21T03:17:17;33.00;73.20
31003;DHT22;23051;-6.372;106.786;2023-11-21T03:19:21;33.10;72.90
31003;DHT22;23051;-6.372;106.786;2023-11-21T03:21:24;33.30;72.70
31003;DHT22;23051;-6.372;106.786;2023-11-21T03:23:28;33.40;72.40
31003;DHT22;23051;-6.372;106.786;2023-11-21T03:25:30;33.50;72.30
31003;DHT22;23051;-6.372;106.786;2023-11-21T03:27:32;33.50;72.10
31003;DHT22;23051;-6.372;106.786;2023-11-21T03:29:33;33.60;72.00
31003;DHT22;23051;-6.372;106.786;2023-11-21T03:31:35;33.60;71.90
31003;DHT22;23051;-6.372;106.786;2023-11-21T03:33:37;33.60;71.90
31003;DHT22;23051;-6.372;106.786;2023-11-21T03:35:41;33.60;72.00
31003;DHT22;23051;-6.372;106.786;2023-11-21T03:37:43;33.70;72.00
31003;DHT22;23051;-6.372;106.786;2023-11-21T03:39:47;33.80;71.80
31003;DHT22;23051;-6.372;106.786;2023-11-21T03:41:51;33.90;71.70
31003;DHT22;23051;-6.372;106.786;2023-11-21T03:43:55;33.90;71.50
31003;DHT22;23051;-6.372;106.786;2023-11-21T03:46:02;34.00;71.60
31003;DHT22;23051;-6.372;106.786;2023-11-21T03:48:09;34.00;71.50
31003;DHT22;23051;-6.372;106.786;2023-11-21T03:52:17;34.10;71.30
31003;DHT22;23051;-6.372;106.786;2023-11-21T03:54:18;34.10;71.20
31003;DHT22;23051;-6.372;106.786;2023-11-21T03:56:22;34.10;71.10
31003;DHT22;23051;-6.372;106.786;2023-11-21T03:58:26;34.20;71.00
31003;DHT22;23051;-6.372;106.786;2023-11-21T04:00:32;34.30;70.90
31003;DHT22;23051;-6.372;106.786;2023-11-21T04:02:37;34.40;70.80
31003;DHT22;23051;-6.372;106.786;2023-11-21T04:04:51;34.40;70.70
31003;DHT22;23051;-6.372;106.786;2023-11-21T04:06:53;34.40;70.70
31003;DHT22;23051;-6.372;106.786;2023-11-21T04:08:54;34.30;70.90
31003;DHT22;23051;-6.372;106.786;2023-11-21T04:11:12;34.30;71.10
31003;DHT22;23051;-6.372;106.786;2023-11-21T04:13:19;34.20;71.10
31003;DHT22;23051;-6.372;106.786;2023-11-21T04:15:28;34.20;71.10
31003;DHT22;23051;-6.372;106.786;2023-11-21T04:17:29;34.20;71.10
31003;DHT22;23051;-6.372;106.786;2023-11-21T04:19:34;34.20;71.00
31003;DHT22;23051;-6.372;106.786;2023-11-21T04:21:37;34.30;71.00
31003;DHT22;23051;-6.372;106.786;2023-11-21T04:23:39;34.30;70.80
31003;DHT22;23051;-6.372;106.786;2023-11-21T04:25:43;34.40;70.80
31003;DHT22;23051;-6.372;106.786;2023-11-21T04:27:50;34.40;70.60
31003;DHT22;23051;-6.372;106.786;2023-11-21T04:29:56;34.50;70.60
31003;DHT22;23051;-6.372;106.786;2023-11-21T04:32:00;34.60;70.40
31003;DHT22;23051;-6.372;106.786;2023-11-21T04:34:03;34.70;70.20
31003;DHT22;23051;-6.372;106.786;2023-11-21T04:36:06;34.70;70.10
31003;DHT22;23051;-6.372;106.786;2023-11-21T04:38:08;34.70;70.00
31003;DHT22;23051;-6.372;106.786;2023-11-21T04:40:13;34.70;70.10
31003;DHT22;23051;-6.372;106.786;2023-11-21T04:42:14;34.70;70.00
31003;DHT22;23051;-6.372;106.786;2023-11-21T04:44:19;34.90;69.80
31003;DHT22;23051;-6.372;106.786;2023-11-21T04:46:20;35.30;69.30
31003;DHT22;23051;-6.372;106.786;2023-11-21T04:48:44;35.60;68.60
31003;DHT22;23051;-6.372;106.786;2023-11-21T04:50:48;35.90;67.90
31003;DHT22;23051;-6.372;106.786;2023-11-21T04:52:58;36.10;67.60
31003;DHT22;23051;-6.372;106.786;2023-11-21T04:55:01;36.10;67.60
31003;DHT22;23051;-6.372;106.786;2023-11-21T04:57:03;36.10;67.60
31003;DHT22;23051;-6.372;106.786;2023-11-21T04:59:08;36.20;67.50
31003;DHT22;23051;-6.372;106.786;2023-11-21T05:01:10;36.30;67.20
31003;DHT22;23051;-6.372;106.786;2023-11-21T05:03:15;36.50;67.10
31003;DHT22;23051;-6.372;106.786;2023-11-21T05:07:58;36.70;66.80
31003;DHT22;23051;-6.372;106.786;2023-11-21T05:10:03;36.80;66.40
31003;DHT22;23051;-6.372;106.786;2023-11-21T05:12:04;37.00;66.20
31003;DHT22;23051;-6.372;106.786;2023-11-21T05:14:07;37.10;65.90
31003;DHT22;23051;-6.372;106.786;2023-11-21T05:16:10;37.20;65.70
31003;DHT22;23051;-6.372;106.786;2023-11-21T05:18:17;37.40;65.70
31003;DHT22;23051;-6.372;106.786;2023-11-21T05:20:21;37.40;65.50
31003;DHT22;23051;-6.372;106.786;2023-11-21T05:22:22;37.40;65.40
31003;DHT22;23051;-6.372;106.786;2023-11-21T05:24:24;37.40;65.50
31003;DHT22;23051;-6.372;106.786;2023-11-21T05:26:32;37.20;65.70
31003;DHT22;23051;-6.372;106.786;2023-11-21T05:28:36;37.10;66.00
31003;DHT22;23051;-6.372;106.786;2023-11-21T05:30:41;37.10;66.20
31003;DHT22;23051;-6.372;106.786;2023-11-21T05:32:42;37.10;66.30
31003;DHT22;23051;-6.372;106.786;2023-11-21T05:34:50;36.90;66.40
31003;DHT22;23051;-6.372;106.786;2023-11-21T05:37:00;36.90;66.50
31003;DHT22;23051;-6.372;106.786;2023-11-21T05:39:05;36.90;66.50
31003;DHT22;23051;-6.372;106.786;2023-11-21T05:41:15;36.90;66.50
31003;DHT22;23051;-6.372;106.786;2023-11-21T05:43:24;36.90;66.60
31003;DHT22;23051;-6.372;106.786;2023-11-21T05:45:31;36.90;66.60
31003;DHT22;23051;-6.372;106.786;2023-11-21T05:47:38;36.90;66.60
31003;DHT22;23051;-6.372;106.786;2023-11-21T05:49:44;36.80;66.70
31003;DHT22;23051;-6.372;106.786;2023-11-21T05:51:52;36.80;66.80
31003;DHT22;23051;-6.372;106.786;2023-11-21T05:53:56;36.90;66.60
31003;DHT22;23051;-6.372;106.786;2023-11-21T05:56:00;37.10;66.20
31003;DHT22;23051;-6.372;106.786;2023-11-21T05:58:02;37.40;65.70
31003;DHT22;23051;-6.372;106.786;2023-11-21T06:00:13;37.60;65.10
31003;DHT22;23051;-6.372;106.786;2023-11-21T06:02:21;37.90;64.50
31003;DHT22;23051;-6.372;106.786;2023-11-21T06:04:29;38.20;64.00
31003;DHT22;23051;-6.372;106.786;2023-11-21T06:06:33;38.40;63.50
31003;DHT22;23051;-6.372;106.786;2023-11-21T06:08:43;38.40;63.40
31003;DHT22;23051;-6.372;106.786;2023-11-21T06:10:47;38.30;63.60
31003;DHT22;23051;-6.372;106.786;2023-11-21T06:12:55;38.10;64.00
31003;DHT22;23051;-6.372;106.786;2023-11-21T06:15:04;37.80;64.70
31003;DHT22;23051;-6.372;106.786;2023-11-21T06:17:12;37.40;65.50
31003;DHT22;23051;-6.372;106.786;2023-11-21T06:19:14;37.10;66.30
31003;DHT22;23051;-6.372;106.786;2023-11-21T06:21:20;36.70;66.80
31003;DHT22;23051;-6.372;106.786;2023-11-21T06:23:22;36.60;67.40
31003;DHT22;23051;-6.372;106.786;2023-11-21T06:25:28;36.50;67.50
31003;DHT22;23051;-6.372;106.786;2023-11-21T06:29:39;36.10;68.30
31003;DHT22;23051;-6.372;106.786;2023-11-21T06:33:46;35.70;69.00
31003;DHT22;23051;-6.372;106.786;2023-11-21T06:35:53;35.50;69.30
31003;DHT22;23051;-6.372;106.786;2023-11-21T06:37:54;35.40;69.50
31003;DHT22;23051;-6.372;106.786;2023-11-21T06:39:59;35.30;69.70
31003;DHT22;23051;-6.372;106.786;2023-11-21T06:42:07;35.10;70.70
31003;DHT22;23051;-6.372;106.786;2023-11-21T06:44:11;35.10;70.10
31003;DHT22;23051;-6.372;106.786;2023-11-21T06:46:13;35.00;70.10
31003;DHT22;23051;-6.372;106.786;2023-11-21T06:48:19;35.00;70.20
31003;DHT22;23051;-6.372;106.786;2023-11-21T06:50:24;34.90;70.40
31003;DHT22;23051;-6.372;106.786;2023-11-21T06:52:28;34.70;70.60
31003;DHT22;23051;-6.372;106.786;2023-11-21T06:54:45;34.70;70.90
31003;DHT22;23051;-6.372;106.786;2023-11-21T06:56:50;34.60;70.80
31003;DHT22;23051;-6.372;106.786;2023-11-21T06:58:56;34.70;70.60
31003;DHT22;23051;-6.372;106.786;2023-11-21T07:01:02;34.80;70.30
31003;DHT22;23051;-6.372;106.786;2023-11-21T07:03:12;34.90;70.10
31003;DHT22;23051;-6.372;106.786;2023-11-21T07:05:13;35.00;70.50
31003;DHT22;23051;-6.372;106.786;2023-11-21T07:07:19;35.10;69.50
31003;DHT22;23051;-6.372;106.786;2023-11-21T07:09:24;35.20;69.20
31003;DHT22;23051;-6.372;106.786;2023-11-21T07:11:27;35.30;69.10
31003;DHT22;23051;-6.372;106.786;2023-11-21T07:13:31;35.30;69.10
31003;DHT22;23051;-6.372;106.786;2023-11-21T07:15:33;35.30;69.20
31003;DHT22;23051;-6.372;106.786;2023-11-21T07:17:37;35.20;69.20
31003;DHT22;23051;-6.372;106.786;2023-11-21T07:19:41;35.20;69.30
31003;DHT22;23051;-6.372;106.786;2023-11-21T07:21:45;35.20;69.20
31003;DHT22;23051;-6.372;106.786;2023-11-21T07:23:54;35.40;69.10
31003;DHT22;23051;-6.372;106.786;2023-11-21T07:25:55;35.50;68.80
31003;DHT22;23051;-6.372;106.786;2023-11-21T07:28:14;35.60;68.50
31003;DHT22;23051;-6.372;106.786;2023-11-21T07:30:18;35.70;68.30
31003;DHT22;23051;-6.372;106.786;2023-11-21T07:32:22;35.60;68.30
31003;DHT22;23051;-6.372;106.786;2023-11-21T07:34:24;35.60;68.30
31003;DHT22;23051;-6.372;106.786;2023-11-21T07:36:28;35.50;68.30
31003;DHT22;23051;-6.372;106.786;2023-11-21T07:38:33;35.50;68.40
31003;DHT22;23051;-6.372;106.786;2023-11-21T07:40:37;35.50;68.50
31003;DHT22;23051;-6.372;106.786;2023-11-21T07:42:44;35.50;68.60
31003;DHT22;23051;-6.372;106.786;2023-11-21T07:44:46;35.40;68.70
31003;DHT22;23051;-6.372;106.786;2023-11-21T07:46:50;35.40;68.70
31003;DHT22;23051;-6.372;106.786;2023-11-21T07:48:54;35.40;68.70
31003;DHT22;23051;-6.372;106.786;2023-11-21T07:51:07;35.50;69.40
31003;DHT22;23051;-6.372;106.786;2023-11-21T07:53:15;35.70;68.40
31003;DHT22;23051;-6.372;106.786;2023-11-21T07:55:17;35.80;67.90
31003;DHT22;23051;-6.372;106.786;2023-11-21T07:57:21;35.90;67.70
31003;DHT22;23051;-6.372;106.786;2023-11-21T07:59:25;36.00;67.60
31003;DHT22;23051;-6.372;106.786;2023-11-21T08:01:29;36.10;67.30
31003;DHT22;23051;-6.372;106.786;2023-11-21T08:03:31;36.20;67.00
31003;DHT22;23051;-6.372;106.786;2023-11-21T08:05:37;36.30;66.90
31003;DHT22;23051;-6.372;106.786;2023-11-21T08:07:39;36.30;67.00
31003;DHT22;23051;-6.372;106.786;2023-11-21T08:09:43;36.30;66.90
31003;DHT22;23051;-6.372;106.786;2023-11-21T08:11:45;36.30;66.90
31003;DHT22;23051;-6.372;106.786;2023-11-21T08:13:47;36.30;66.90
31003;DHT22;23051;-6.372;106.786;2023-11-21T08:15:49;36.30;66.90
31003;DHT22;23051;-6.372;106.786;2023-11-21T08:17:51;36.30;66.90
31003;DHT22;23051;-6.372;106.786;2023-11-21T08:19:57;36.30;66.90
31003;DHT22;23051;-6.372;106.786;2023-11-21T08:22:01;36.20;66.90
31003;DHT22;23051;-6.372;106.786;2023-11-21T08:24:03;36.20;67.00
31003;DHT22;23051;-6.372;106.786;2023-11-21T08:26:08;36.20;67.00
31003;DHT22;23051;-6.372;106.786;2023-11-21T08:28:15;36.20;67.00
31003;DHT22;23051;-6.372;106.786;2023-11-21T08:30:20;36.20;67.10
31003;DHT22;23051;-6.372;106.786;2023-11-21T08:32:42;36.10;67.20
31003;DHT22;23051;-6.372;106.786;2023-11-21T08:34:50;36.00;67.70
31003;DHT22;23051;-6.372;106.786;2023-11-21T08:36:56;36.00;67.80
31003;DHT22;23051;-6.372;106.786;2023-11-21T08:39:01;36.50;66.80
31003;DHT22;23051;-6.372;106.786;2023-11-21T08:41:04;37.20;64.90
31003;DHT22;23051;-6.372;106.786;2023-11-21T08:43:08;37.00;64.60
31003;DHT22;23051;-6.372;106.786;2023-11-21T08:45:18;37.00;65.00
31003;DHT22;23051;-6.372;106.786;2023-11-21T08:47:22;37.40;64.30
31003;DHT22;23051;-6.372;106.786;2023-11-21T08:49:27;37.60;63.60
31003;DHT22;23051;-6.372;106.786;2023-11-21T08:51:34;37.00;64.10
31003;DHT22;23051;-6.372;106.786;2023-11-21T08:53:38;36.50;65.50
31003;DHT22;23051;-6.372;106.786;2023-11-21T08:55:40;36.80;65.70
31003;DHT22;23051;-6.372;106.786;2023-11-21T08:57:45;36.40;65.80
31003;DHT22;23051;-6.372;106.786;2023-11-21T09:01:56;35.70;67.60
31003;DHT22;23051;-6.372;106.786;2023-11-21T09:04:00;35.40;68.30
31003;DHT22;23051;-6.372;106.786;2023-11-21T09:06:07;35.30;68.90
31003;DHT22;23051;-6.372;106.786;2023-11-21T09:08:11;35.00;69.30
31003;DHT22;23051;-6.372;106.786;2023-11-21T09:10:15;34.90;69.70
31003;DHT22;23051;-6.372;106.786;2023-11-21T09:12:27;34.60;70.00
31003;DHT22;23051;-6.372;106.786;2023-11-21T09:14:30;34.50;70.40
31003;DHT22;23051;-6.372;106.786;2023-11-21T09:16:32;34.50;70.60
31003;DHT22;23051;-6.372;106.786;2023-11-21T09:18:36;34.50;70.40
31003;DHT22;23051;-6.372;106.786;2023-11-21T09:20:41;34.60;70.20
31003;DHT22;23051;-6.372;106.786;2023-11-21T09:22:48;34.60;70.10
31003;DHT22;23051;-6.372;106.786;2023-11-21T09:24:52;34.50;70.20
31003;DHT22;23051;-6.372;106.786;2023-11-21T09:26:54;34.50;70.30
31003;DHT22;23051;-6.372;106.786;2023-11-21T09:28:58;34.30;70.40
31003;DHT22;23051;-6.372;106.786;2023-11-21T09:30:59;34.20;70.50
31003;DHT22;23051;-6.372;106.786;2023-11-21T09:33:04;34.10;71.00
31003;DHT22;23051;-6.372;106.786;2023-11-21T09:35:11;33.90;71.30
31003;DHT22;23051;-6.372;106.786;2023-11-21T09:37:17;33.70;71.70
31003;DHT22;23051;-6.372;106.786;2023-11-21T09:39:22;33.60;72.10
31003;DHT22;23051;-6.372;106.786;2023-11-21T09:43:32;33.30;72.70
31003;DHT22;23051;-6.372;106.786;2023-11-21T09:45:36;33.20;73.10
31003;DHT22;23051;-6.372;106.786;2023-11-21T09:47:45;33.10;73.10
31003;DHT22;23051;-6.372;106.786;2023-11-21T09:49:48;33.00;73.40
31003;DHT22;23051;-6.372;106.786;2023-11-21T09:51:54;32.90;73.50
31003;DHT22;23051;-6.372;106.786;2023-11-21T09:54:00;32.90;73.70
31003;DHT22;23051;-6.372;106.786;2023-11-21T09:56:03;32.80;73.90
31003;DHT22;23051;-6.372;106.786;2023-11-21T09:58:05;32.70;73.90
31003;DHT22;23051;-6.372;106.786;2023-11-21T10:00:15;32.60;74.00
31003;DHT22;23051;-6.372;106.786;2023-11-21T10:02:24;32.60;74.10
31003;DHT22;23051;-6.372;106.786;2023-11-21T10:04:28;32.70;74.00
31003;DHT22;23051;-6.372;106.786;2023-11-21T10:06:29;32.90;73.70
31003;DHT22;23051;-6.372;106.786;2023-11-21T10:08:34;33.10;73.10
31003;DHT22;23051;-6.372;106.786;2023-11-21T10:10:38;33.30;72.50
31003;DHT22;23051;-6.372;106.786;2023-11-21T10:12:50;33.50;72.10
31003;DHT22;23051;-6.372;106.786;2023-11-21T10:14:57;33.70;71.70
31003;DHT22;23051;-6.372;106.786;2023-11-21T10:17:04;33.90;71.30
31003;DHT22;23051;-6.372;106.786;2023-11-21T10:19:10;34.10;70.80
31003;DHT22;23051;-6.372;106.786;2023-11-21T10:21:17;34.30;70.40
31003;DHT22;23051;-6.372;106.786;2023-11-21T10:23:48;34.50;69.90
31003;DHT22;23051;-6.372;106.786;2023-11-21T10:25:52;34.60;69.60
31003;DHT22;23051;-6.372;106.786;2023-11-21T10:28:05;34.60;69.50
31003;DHT22;23051;-6.372;106.786;2023-11-21T10:30:13;34.70;69.60
31003;DHT22;23051;-6.372;106.786;2023-11-21T10:32:21;34.70;69.50
31003;DHT22;23051;-6.372;106.786;2023-11-21T10:34:27;34.70;69.60
31003;DHT22;23051;-6.372;106.786;2023-11-21T10:36:32;34.80;69.60
31003;DHT22;23051;-6.372;106.786;2023-11-21T10:38:42;34.80;69.50
31003;DHT22;23051;-6.372;106.786;2023-11-21T10:40:45;34.80;69.50
31003;DHT22;23051;-6.372;106.786;2023-11-21T10:42:47;34.80;69.60
31003;DHT22;23051;-6.372;106.786;2023-11-21T10:44:52;34.70;69.60
31003;DHT22;23051;-6.372;106.786;2023-11-21T10:46:54;34.60;69.90
31003;DHT22;23051;-6.372;106.786;2023-11-21T10:49:00;34.60;70.20
31003;DHT22;23051;-6.372;106.786;2023-11-21T10:53:17;34.60;70.20
31003;DHT22;23051;-6.372;106.786;2023-11-21T10:55:19;34.60;70.20
31003;DHT22;23051;-6.372;106.786;2023-11-21T10:57:25;34.60;70.10
31003;DHT22;23051;-6.372;106.786;2023-11-21T10:59:31;34.50;70.20
31003;DHT22;23051;-6.372;106.786;2023-11-21T11:01:35;34.50;70.30
31003;DHT22;23051;-6.372;106.786;2023-11-21T11:03:39;34.50;70.50
31003;DHT22;23051;-6.372;106.786;2023-11-21T11:07:43;34.50;70.40
31003;DHT22;23051;-6.372;106.786;2023-11-21T11:09:50;34.50;70.40
31003;DHT22;23051;-6.372;106.786;2023-11-21T11:11:56;34.50;70.30
31003;DHT22;23051;-6.372;106.786;2023-11-21T11:13:59;34.50;70.30
31003;DHT22;23051;-6.372;106.786;2023-11-21T11:16:02;34.50;70.40
31003;DHT22;23051;-6.372;106.786;2023-11-21T11:18:15;34.50;70.60
31003;DHT22;23051;-6.372;106.786;2023-11-21T11:20:23;34.30;70.60
31003;DHT22;23051;-6.372;106.786;2023-11-21T11:26:54;34.30;70.90
31003;DHT22;23051;-6.372;106.786;2023-11-21T11:36:02;34.20;71.00
31003;DHT22;23051;-6.372;106.786;2023-11-21T11:38:11;34.20;71.30
31003;DHT22;23051;-6.372;106.786;2023-11-21T11:40:14;34.20;71.10
31003;DHT22;23051;-6.372;106.786;2023-11-21T11:42:18;34.20;71.20
31003;DHT22;23051;-6.372;106.786;2023-11-21T11:48:38;34.10;71.30
31003;DHT22;23051;-6.372;106.786;2023-11-21T11:53:12;34.10;71.50
31003;DHT22;23051;-6.372;106.786;2023-11-21T11:55:17;34.00;71.60
31003;DHT22;23051;-6.372;106.786;2023-11-21T11:57:29;34.00;71.60
31003;DHT22;23051;-6.372;106.786;2023-11-21T12:02:04;33.90;71.70
31003;DHT22;23051;-6.372;106.786;2023-11-21T12:06:34;33.80;71.90
31003;DHT22;23051;-6.372;106.786;2023-11-21T12:08:41;33.70;72.00
31003;DHT22;23051;-6.372;106.786;2023-11-21T12:10:46;33.70;72.10
31003;DHT22;23051;-6.372;106.786;2023-11-21T12:12:56;33.60;72.10
31003;DHT22;23051;-6.372;106.786;2023-11-21T12:15:00;33.60;72.10
31003;DHT22;23051;-6.372;106.786;2023-11-21T12:17:02;33.60;72.20
31003;DHT22;23051;-6.372;106.786;2023-11-21T12:19:11;33.50;72.30
31003;DHT22;23051;-6.372;106.786;2023-11-21T12:21:18;33.50;72.50
31003;DHT22;23051;-6.372;106.786;2023-11-21T12:23:22;33.40;72.60
31003;DHT22;23051;-6.372;106.786;2023-11-21T12:25:31;33.40;72.70
31003;DHT22;23051;-6.372;106.786;2023-11-21T12:27:38;33.40;72.50
31003;DHT22;23051;-6.372;106.786;2023-11-21T12:29:43;33.50;72.50
31003;DHT22;23051;-6.372;106.786;2023-11-21T12:31:52;33.60;72.10
31003;DHT22;23051;-6.372;106.786;2023-11-21T12:33:54;33.70;71.90
31003;DHT22;23051;-6.372;106.786;2023-11-21T12:35:59;33.80;71.80
31003;DHT22;23051;-6.372;106.786;2023-11-21T12:38:06;33.90;71.60
31003;DHT22;23051;-6.372;106.786;2023-11-21T12:40:10;34.00;71.40
31003;DHT22;23051;-6.372;106.786;2023-11-21T12:42:16;34.00;71.20
31003;DHT22;23051;-6.372;106.786;2023-11-21T12:44:20;34.10;71.00
31003;DHT22;23051;-6.372;106.786;2023-11-21T12:46:25;34.20;70.80
31003;DHT22;23051;-6.372;106.786;2023-11-21T12:48:33;34.20;70.60
31003;DHT22;23051;-6.372;106.786;2023-11-21T12:50:51;34.20;70.70
31003;DHT22;23051;-6.372;106.786;2023-11-21T12:52:57;34.10;70.80
31003;DHT22;23051;-6.372;106.786;2023-11-21T12:55:03;34.00;71.20
31003;DHT22;23051;-6.372;106.786;2023-11-21T12:57:10;34.00;71.40
31003;DHT22;23051;-6.372;106.786;2023-11-21T12:59:15;33.90;71.30
31003;DHT22;23051;-6.372;106.786;2023-11-21T13:01:19;33.90;71.30
31003;DHT22;23051;-6.372;106.786;2023-11-21T13:03:20;34.00;71.20
31003;DHT22;23051;-6.372;106.786;2023-11-21T13:05:33;33.90;71.30
31003;DHT22;23051;-6.372;106.786;2023-11-21T13:07:46;33.90;71.40
31003;DHT22;23051;-6.372;106.786;2023-11-21T13:09:53;33.80;71.40
31003;DHT22;23051;-6.372;106.786;2023-11-21T13:12:06;33.80;71.50
31003;DHT22;23051;-6.372;106.786;2023-11-21T13:14:13;33.70;71.50
31003;DHT22;23051;-6.372;106.786;2023-11-21T13:16:21;33.70;71.70
31003;DHT22;23051;-6.372;106.786;2023-11-21T13:18:28;33.60;71.70
31003;DHT22;23051;-6.372;106.786;2023-11-21T13:20:37;33.60;71.90
31003;DHT22;23051;-6.372;106.786;2023-11-21T13:22:48;33.50;72.00
31003;DHT22;23051;-6.372;106.786;2023-11-21T13:24:50;33.40;72.00
31003;DHT22;23051;-6.372;106.786;2023-11-21T13:26:54;33.40;72.00
31003;DHT22;23051;-6.372;106.786;2023-11-21T13:28:56;33.40;72.10
31003;DHT22;23051;-6.372;106.786;2023-11-21T13:31:01;33.40;72.10
31003;DHT22;23051;-6.372;106.786;2023-11-21T13:33:25;33.40;72.00
31003;DHT22;23051;-6.372;106.786;2023-11-21T13:35:30;33.40;71.90
31003;DHT22;23051;-6.372;106.786;2023-11-21T13:37:36;33.40;71.90